Time;durP1;ratioP1;P1;durP2;ratioP2;P2;SDS_P1;SDS_P2;PMS_P1;PMS_P2;Temp;Humidity;BMP_temperature;BMP_pressure;BME280_temperature;BME280_humidity;BME280_pressure;Samples;Min_cycle;Max_cycle;Signal;HPM_P1;HPM_P2
2024/01/03 00:01:16;;;;;;;3.37;0.70;;;9.30;99.90;;;;;;4913414;29;20192;-56
2024/01/03 00:03:42;;;;;;;4.03;0.70;;;9.30;99.90;;;;;;4909818;29;20180;-55
2024/01/03 00:06:08;;;;;;;5.20;0.80;;;9.20;99.90;;;;;;4902022;29;20188;-56
2024/01/03 00:08:38;;;;;;;6.57;0.80;;;9.30;99.90;;;;;;4913307;29;20227;-55
2024/01/03 00:11:03;;;;;;;3.80;0.70;;;9.20;99.90;;;;;;4913704;29;20180;-54
2024/01/03 00:13:29;;;;;;;9.20;1.10;;;9.20;99.90;;;;;;4898783;29;20198;-56
2024/01/03 00:16:04;;;;;;;6.97;0.80;;;9.30;99.90;;;;;;4911590;29;20229;-55
2024/01/03 00:18:32;;;;;;;4.23;0.60;;;9.20;99.90;;;;;;4915258;29;20306;-57
2024/01/03 00:20:58;;;;;;;4.57;0.70;;;9.20;99.90;;;;;;4917367;29;20548;-53
2024/01/03 00:23:38;;;;;;;3.83;0.73;;;9.20;99.90;;;;;;4916157;29;20188;-56
2024/01/03 00:26:09;;;;;;;5.60;0.73;;;9.10;99.90;;;;;;4917727;29;20191;-54
2024/01/03 00:28:34;;;;;;;1.60;0.83;;;9.10;99.90;;;;;;4909212;29;20227;-53
2024/01/03 00:31:01;;;;;;;6.63;0.77;;;9.10;99.90;;;;;;4903578;29;20200;-52
2024/01/03 00:33:27;;;;;;;3.53;1.00;;;9.10;99.90;;;;;;4907211;29;20190;-55
2024/01/03 00:35:53;;;;;;;3.03;0.70;;;9.10;99.90;;;;;;4917562;29;20187;-51
2024/01/03 00:38:19;;;;;;;3.77;0.80;;;9.20;99.90;;;;;;4909299;29;20212;-54
2024/01/03 00:40:52;;;;;;;1.27;0.50;;;9.10;99.90;;;;;;4916514;29;20192;-52
2024/01/03 00:43:17;;;;;;;3.47;0.60;;;9.10;99.90;;;;;;4907555;29;20207;-52
2024/01/03 00:45:43;;;;;;;5.57;1.20;;;9.20;99.90;;;;;;4905297;29;20216;-54
2024/01/03 00:48:09;;;;;;;3.80;0.60;;;9.10;99.90;;;;;;4911524;29;20279;-53
2024/01/03 00:50:34;;;;;;;4.07;0.70;;;9.10;99.90;;;;;;4908515;29;20188;-52
2024/01/03 00:53:00;;;;;;;7.20;0.60;;;9.20;99.90;;;;;;4907910;29;20262;-52
2024/01/03 00:55:26;;;;;;;1.17;0.37;;;9.20;99.90;;;;;;4915857;29;20211;-53
2024/01/03 00:57:52;;;;;;;5.40;0.50;;;9.20;99.90;;;;;;4911308;29;20192;-54
2024/01/03 01:00:17;;;;;;;3.77;0.63;;;9.10;99.90;;;;;;4908426;29;20211;-53
2024/01/03 01:02:45;;;;;;;4.27;0.60;;;9.00;99.90;;;;;;4900628;29;20184;-53
2024/01/03 01:05:11;;;;;;;6.57;0.70;;;8.90;99.90;;;;;;4908336;29;20274;-53
2024/01/03 01:07:36;;;;;;;4.30;0.40;;;8.90;99.90;;;;;;4915829;29;20343;-57
2024/01/03 01:10:02;;;;;;;4.63;0.70;;;9.00;99.90;;;;;;4908274;29;20246;-53
2024/01/03 01:12:27;;;;;;;5.10;0.60;;;8.90;99.90;;;;;;4906123;29;20262;-52
2024/01/03 01:14:53;;;;;;;6.07;0.70;;;8.80;99.90;;;;;;4908064;29;20188;-52
2024/01/03 01:17:18;;;;;;;2.17;0.50;;;8.80;99.90;;;;;;4907497;29;20195;-56
2024/01/03 01:19:44;;;;;;;0.77;0.23;;;8.80;99.90;;;;;;4908246;29;20215;-57
2024/01/03 01:22:09;;;;;;;5.03;0.70;;;8.80;99.90;;;;;;4900242;29;20227;-53
2024/01/03 01:24:35;;;;;;;2.33;0.40;;;8.80;99.90;;;;;;4912082;29;20188;-53
2024/01/03 01:27:01;;;;;;;1.20;0.40;;;8.80;99.90;;;;;;4910646;29;20674;-56
2024/01/03 01:29:26;;;;;;;2.77;0.37;;;8.80;99.90;;;;;;4914235;29;20703;-53
2024/01/03 01:31:52;;;;;;;3.43;0.57;;;8.90;99.90;;;;;;4908649;29;20188;-51
2024/01/03 01:34:17;;;;;;;2.83;0.30;;;8.80;99.90;;;;;;4907282;29;20193;-53
2024/01/03 01:36:44;;;;;;;1.77;0.30;;;8.90;99.90;;;;;;4907898;29;20184;-55
2024/01/03 01:39:10;;;;;;;2.97;0.40;;;8.90;99.90;;;;;;4915326;29;20210;-53
2024/01/03 01:41:35;;;;;;;2.37;0.40;;;8.90;99.90;;;;;;4915153;29;20621;-53
2024/01/03 01:44:01;;;;;;;2.00;0.30;;;8.90;99.90;;;;;;4914839;29;20188;-54
2024/01/03 01:46:27;;;;;;;0.80;0.30;;;9.00;99.90;;;;;;4899484;29;20248;-56
2024/01/03 01:48:53;;;;;;;1.63;0.30;;;9.00;99.90;;;;;;4907359;29;20291;-54
2024/01/03 01:51:19;;;;;;;1.53;0.30;;;9.00;99.90;;;;;;4914903;29;20215;-53
2024/01/03 01:53:45;;;;;;;1.47;0.40;;;9.00;99.90;;;;;;4901790;29;20188;-55
2024/01/03 01:56:11;;;;;;;1.27;0.30;;;9.00;99.90;;;;;;4911372;29;20183;-54
2024/01/03 01:58:40;;;;;;;2.20;0.40;;;8.90;99.90;;;;;;4896520;29;20212;-52
2024/01/03 02:01:06;;;;;;;1.97;0.13;;;9.00;99.90;;;;;;4910427;29;20187;-52
2024/01/03 02:03:33;;;;;;;3.00;0.23;;;8.90;99.90;;;;;;4906528;29;20581;-54
2024/01/03 02:05:59;;;;;;;2.53;0.20;;;8.90;99.90;;;;;;4914903;29;20191;-55
2024/01/03 02:08:24;;;;;;;3.97;0.30;;;8.90;99.90;;;;;;4914497;29;20227;-56
2024/01/03 02:10:51;;;;;;;0.57;0.30;;;8.90;99.90;;;;;;4914671;29;20188;-53
2024/01/03 02:13:16;;;;;;;0.47;0.30;;;8.90;99.90;;;;;;4905957;29;20250;-55
2024/01/03 02:15:42;;;;;;;1.33;0.30;;;9.00;99.90;;;;;;4906898;29;20708;-55
2024/01/03 02:18:08;;;;;;;3.53;0.50;;;9.00;99.90;;;;;;4914408;29;20222;-54
2024/01/03 02:20:36;;;;;;;2.33;0.30;;;9.00;99.90;;;;;;4914571;29;20223;-57
2024/01/03 02:23:02;;;;;;;1.57;0.40;;;8.90;99.90;;;;;;4908450;29;20195;-57
2024/01/03 02:25:27;;;;;;;2.27;0.30;;;8.80;99.90;;;;;;4912909;29;20196;-54
2024/01/03 02:27:53;;;;;;;4.00;0.70;;;8.80;99.90;;;;;;4914440;29;20752;-56
2024/01/03 02:30:18;;;;;;;0.70;0.37;;;8.70;99.90;;;;;;4906490;29;20303;-55
2024/01/03 02:32:44;;;;;;;4.90;0.60;;;8.70;99.90;;;;;;4910142;29;20196;-54
2024/01/03 02:35:09;;;;;;;2.30;0.53;;;8.60;99.90;;;;;;4902909;29;20195;-55
2024/01/03 02:37:35;;;;;;;3.13;0.50;;;8.60;99.90;;;;;;4905898;29;20195;-54
2024/01/03 02:40:01;;;;;;;6.53;0.40;;;8.60;99.90;;;;;;4914358;29;20370;-55
2024/01/03 02:42:26;;;;;;;5.80;0.50;;;8.50;99.90;;;;;;4897924;29;20188;-53
2024/01/03 02:44:52;;;;;;;2.90;0.50;;;8.50;99.90;;;;;;4914196;29;20215;-53
2024/01/03 02:47:17;;;;;;;4.97;0.60;;;8.50;99.90;;;;;;4914106;29;20191;-52
2024/01/03 02:49:43;;;;;;;3.93;0.60;;;8.40;99.90;;;;;;4914264;29;20259;-55
2024/01/03 02:52:08;;;;;;;8.97;0.60;;;8.40;99.90;;;;;;4906058;29;20243;-52
2024/01/03 02:54:34;;;;;;;4.07;0.60;;;8.40;99.90;;;;;;4906320;29;20628;-49
2024/01/03 02:56:59;;;;;;;7.17;0.63;;;8.40;99.90;;;;;;4908540;29;20184;-52
2024/01/03 02:59:25;;;;;;;4.73;0.80;;;8.40;99.90;;;;;;4904308;29;20212;-52
2024/01/03 03:01:51;;;;;;;3.37;0.53;;;8.40;99.90;;;;;;4913545;29;20271;-52
2024/01/03 03:04:17;;;;;;;3.90;0.57;;;8.40;99.90;;;;;;4906092;29;20317;-50
2024/01/03 03:06:42;;;;;;;4.90;0.50;;;8.40;99.90;;;;;;4898888;29;20651;-50
2024/01/03 03:09:08;;;;;;;9.03;0.80;;;8.30;99.90;;;;;;4913869;29;20211;-52
2024/01/03 03:11:33;;;;;;;4.43;0.57;;;8.30;99.90;;;;;;4913521;29;20191;-55
2024/01/03 03:13:59;;;;;;;2.60;0.60;;;8.40;99.90;;;;;;4913333;29;20211;-52
2024/01/03 03:16:25;;;;;;;5.97;0.80;;;8.40;99.90;;;;;;4905939;29;20272;-51
2024/01/03 03:18:51;;;;;;;10.33;0.90;;;8.30;99.90;;;;;;4913815;29;20682;-49
2024/01/03 03:21:16;;;;;;;6.87;1.33;;;8.30;99.90;;;;;;4913864;29;20261;-54
2024/01/03 03:23:42;;;;;;;3.07;0.53;;;8.30;99.90;;;;;;4894938;29;20184;-51
2024/01/03 03:26:10;;;;;;;4.03;0.80;;;8.30;99.90;;;;;;4909479;29;20743;-53
2024/01/03 03:28:36;;;;;;;8.33;0.87;;;8.30;99.90;;;;;;4906170;29;20234;-52
2024/01/03 03:31:03;;;;;;;8.33;0.80;;;8.40;99.90;;;;;;4906330;29;20176;-53
2024/01/03 03:33:30;;;;;;;9.33;1.30;;;8.40;99.90;;;;;;4912894;29;20214;-51
2024/01/03 03:35:56;;;;;;;11.90;1.03;;;8.40;99.90;;;;;;4913731;29;20180;-51
2024/01/03 03:38:21;;;;;;;4.30;0.90;;;8.40;99.90;;;;;;4911543;29;20621;-52
2024/01/03 03:40:47;;;;;;;2.83;0.63;;;8.40;99.90;;;;;;4903011;29;20207;-51
2024/01/03 03:43:12;;;;;;;3.23;0.80;;;8.40;99.90;;;;;;4909810;29;20282;-50
2024/01/03 03:45:38;;;;;;;2.70;0.67;;;8.40;99.90;;;;;;4905745;29;20566;-49
2024/01/03 03:48:04;;;;;;;7.60;1.00;;;8.40;99.90;;;;;;4901750;29;20220;-51
2024/01/03 03:50:30;;;;;;;3.80;0.80;;;8.40;99.90;;;;;;4913955;29;20180;-51
2024/01/03 03:52:56;;;;;;;3.87;0.43;;;8.40;99.90;;;;;;4910707;29;20271;-53
2024/01/03 03:55:21;;;;;;;2.97;0.53;;;8.40;99.90;;;;;;4908894;29;20629;-54
2024/01/03 03:57:47;;;;;;;2.77;0.80;;;8.40;99.90;;;;;;4910265;29;20190;-53
2024/01/03 04:00:13;;;;;;;5.40;0.60;;;8.50;99.90;;;;;;4917307;29;20267;-50
2024/01/03 04:02:38;;;;;;;5.30;0.70;;;8.40;99.90;;;;;;4913513;29;20192;-56
2024/01/03 04:05:04;;;;;;;1.90;0.50;;;8.40;99.90;;;;;;4912280;29;20190;-55
2024/01/03 04:07:31;;;;;;;5.07;0.67;;;8.40;99.90;;;;;;4914931;29;20194;-49
2024/01/03 04:09:57;;;;;;;3.10;0.70;;;8.30;99.90;;;;;;4903410;29;20196;-49
2024/01/03 04:12:23;;;;;;;2.53;0.63;;;8.30;99.90;;;;;;4908948;29;20212;-53
2024/01/03 04:14:48;;;;;;;5.33;0.60;;;8.30;99.90;;;;;;4916919;29;20184;-55
2024/01/03 04:17:15;;;;;;;3.67;0.67;;;8.20;99.90;;;;;;4909030;29;20233;-55
2024/01/03 04:19:41;;;;;;;6.10;1.27;;;8.20;99.90;;;;;;4916329;29;20637;-49
2024/01/03 04:22:07;;;;;;;5.33;0.80;;;8.30;99.90;;;;;;4916247;29;20270;-52
2024/01/03 04:24:32;;;;;;;3.13;0.80;;;8.30;99.90;;;;;;4914696;29;20188;-53
2024/01/03 04:26:58;;;;;;;7.03;0.90;;;8.20;99.90;;;;;;4911598;29;20278;-51
2024/01/03 04:29:23;;;;;;;8.40;0.83;;;8.20;99.90;;;;;;4916635;29;20362;-55
2024/01/03 04:31:49;;;;;;;8.27;1.23;;;8.20;99.90;;;;;;4915884;29;20231;-49
2024/01/03 04:34:15;;;;;;;4.80;0.90;;;8.30;99.90;;;;;;4916579;29;20199;-51
2024/01/03 04:36:40;;;;;;;8.27;1.10;;;8.30;99.90;;;;;;4913486;29;20181;-48
2024/01/03 04:39:06;;;;;;;8.97;1.07;;;8.30;99.90;;;;;;4911613;29;20631;-50
2024/01/03 04:41:31;;;;;;;9.23;1.37;;;8.30;99.90;;;;;;4907301;29;20192;-49
2024/01/03 04:43:58;;;;;;;8.10;1.57;;;8.30;99.90;;;;;;4910781;29;20188;-53
2024/01/03 04:46:24;;;;;;;7.00;0.90;;;8.40;99.90;;;;;;4913564;29;20192;-49
2024/01/03 04:48:49;;;;;;;7.10;1.03;;;8.40;99.90;;;;;;4908434;29;20226;-48
2024/01/03 04:51:15;;;;;;;6.73;1.20;;;8.40;99.90;;;;;;4908899;29;20237;-52
2024/01/03 04:53:41;;;;;;;4.53;1.03;;;8.40;99.90;;;;;;4912268;29;20184;-49
2024/01/03 04:56:07;;;;;;;6.33;0.97;;;8.40;99.90;;;;;;4911592;29;20199;-50
2024/01/03 04:58:33;;;;;;;11.13;1.37;;;8.40;99.90;;;;;;4915693;29;20246;-54
2024/01/03 05:00:58;;;;;;;5.33;1.20;;;8.40;99.90;;;;;;4915624;29;20624;-49
2024/01/03 05:03:24;;;;;;;9.20;1.43;;;8.40;99.90;;;;;;4915224;29;20199;-49
2024/01/03 05:05:49;;;;;;;7.87;1.10;;;8.40;99.90;;;;;;4915888;29;20690;-50
2024/01/03 05:08:15;;;;;;;7.37;1.20;;;8.40;99.90;;;;;;4915628;29;20267;-49
2024/01/03 05:10:41;;;;;;;9.67;1.30;;;8.50;99.90;;;;;;4912868;29;20177;-49
2024/01/03 05:13:07;;;;;;;7.63;1.30;;;8.40;99.90;;;;;;4910784;29;20274;-49
2024/01/03 05:15:32;;;;;;;9.77;1.17;;;8.40;99.90;;;;;;4913582;29;20287;-51
2024/01/03 05:17:58;;;;;;;6.83;1.00;;;8.40;99.90;;;;;;4909893;29;20191;-53
2024/01/03 05:20:23;;;;;;;5.03;1.10;;;8.40;99.90;;;;;;4907978;29;20196;-56
2024/01/03 05:22:49;;;;;;;10.03;1.20;;;8.40;99.90;;;;;;4914878;29;20211;-50
2024/01/03 05:25:14;;;;;;;5.17;1.00;;;8.40;99.90;;;;;;4915570;29;20187;-49
2024/01/03 05:27:40;;;;;;;11.30;1.23;;;8.40;99.90;;;;;;4907640;29;20184;-49
2024/01/03 05:30:06;;;;;;;7.43;1.30;;;8.40;99.90;;;;;;4909444;29;20197;-51
2024/01/03 05:32:32;;;;;;;8.27;1.10;;;8.40;99.90;;;;;;4913187;29;20199;-51
2024/01/03 05:34:57;;;;;;;8.00;0.97;;;8.40;99.90;;;;;;4906590;29;20553;-50
2024/01/03 05:37:23;;;;;;;7.07;1.37;;;8.40;99.90;;;;;;4915035;29;20267;-49
2024/01/03 05:39:48;;;;;;;2.63;1.00;;;8.30;99.90;;;;;;4903680;29;20219;-49
2024/01/03 05:42:14;;;;;;;6.47;1.83;;;8.30;99.90;;;;;;4903381;29;20194;-50
2024/01/03 05:44:39;;;;;;;7.83;1.10;;;8.30;99.90;;;;;;4912129;29;20188;-48
2024/01/03 05:47:05;;;;;;;6.97;1.20;;;8.30;99.90;;;;;;4910441;29;20656;-52
2024/01/03 05:49:31;;;;;;;5.90;0.90;;;8.30;99.90;;;;;;4907671;29;20670;-49
2024/01/03 05:51:58;;;;;;;4.77;1.00;;;8.30;99.90;;;;;;4914473;29;20203;-49
2024/01/03 05:54:23;;;;;;;6.60;1.30;;;8.30;99.90;;;;;;4906694;29;20192;-52
2024/01/03 05:56:50;;;;;;;4.83;1.10;;;8.30;99.90;;;;;;4900525;29;20203;-53
2024/01/03 05:59:15;;;;;;;16.27;1.10;;;8.30;99.90;;;;;;4907646;29;20623;-53
2024/01/03 06:01:41;;;;;;;9.87;1.33;;;8.30;99.90;;;;;;4914562;29;20669;-52
2024/01/03 06:04:06;;;;;;;5.40;1.27;;;8.30;99.90;;;;;;4914892;29;20211;-50
2024/01/03 06:06:32;;;;;;;7.37;0.83;;;8.30;99.90;;;;;;4914355;29;20450;-55
2024/01/03 06:08:57;;;;;;;6.63;1.27;;;8.20;99.90;;;;;;4921393;29;20626;-53
2024/01/03 06:11:23;;;;;;;6.43;0.80;;;8.30;99.90;;;;;;4913959;29;20195;-52
2024/01/03 06:13:51;;;;;;;4.30;0.93;;;8.30;99.90;;;;;;4914174;29;20180;-54
2024/01/03 06:16:16;;;;;;;7.53;1.03;;;8.30;99.90;;;;;;4914608;29;20195;-53
2024/01/03 06:18:42;;;;;;;4.23;1.03;;;8.30;99.90;;;;;;4906707;29;20226;-52
2024/01/03 06:21:11;;;;;;;8.00;1.00;;;8.30;99.90;;;;;;4908189;29;20616;-54
2024/01/03 06:23:38;;;;;;;3.50;1.00;;;8.30;99.90;;;;;;4913061;29;20195;-55
2024/01/03 06:26:06;;;;;;;3.30;0.83;;;8.40;99.90;;;;;;4914557;29;20552;-53
2024/01/03 06:28:31;;;;;;;9.73;1.40;;;8.30;99.90;;;;;;4914500;29;20686;-54
2024/01/03 06:30:57;;;;;;;8.03;1.10;;;8.30;99.90;;;;;;4914463;29;20187;-52
2024/01/03 06:33:22;;;;;;;11.57;1.50;;;8.40;99.90;;;;;;4913484;29;20188;-55
2024/01/03 06:35:48;;;;;;;9.70;1.97;;;8.40;99.90;;;;;;4914520;29;20204;-52
2024/01/03 06:38:14;;;;;;;16.13;1.50;;;8.40;99.90;;;;;;4913410;29;20195;-54
2024/01/03 06:40:39;;;;;;;19.00;1.53;;;8.40;99.90;;;;;;4911271;29;20227;-55
2024/01/03 06:43:06;;;;;;;7.90;2.00;;;8.40;99.90;;;;;;4901118;29;20216;-52
2024/01/03 06:45:31;;;;;;;14.83;1.20;;;8.40;99.90;;;;;;4906364;29;20258;-56
2024/01/03 06:47:57;;;;;;;12.43;2.00;;;8.40;99.90;;;;;;4899421;29;20688;-51
2024/01/03 06:50:22;;;;;;;10.50;2.07;;;8.40;99.90;;;;;;4895973;29;20227;-52
2024/01/03 06:52:48;;;;;;;9.00;1.60;;;8.40;99.90;;;;;;4909885;29;20268;-52
2024/01/03 06:55:13;;;;;;;18.17;2.70;;;8.40;99.90;;;;;;4910562;29;20218;-53
2024/01/03 06:57:41;;;;;;;9.17;1.20;;;8.40;99.90;;;;;;4910996;29;20188;-51
2024/01/03 07:00:07;;;;;;;13.77;2.37;;;8.30;99.90;;;;;;4909454;29;20231;-53
2024/01/03 07:02:33;;;;;;;13.33;1.40;;;8.30;99.90;;;;;;4902413;29;20193;-52
2024/01/03 07:04:59;;;;;;;9.07;1.30;;;8.30;99.90;;;;;;4903194;29;20201;-52
2024/01/03 07:07:24;;;;;;;13.40;2.67;;;8.20;99.90;;;;;;4910845;29;20187;-55
2024/01/03 07:09:50;;;;;;;11.13;2.23;;;8.20;99.90;;;;;;4894072;29;20208;-52
2024/01/03 07:12:16;;;;;;;22.80;2.20;;;8.20;99.90;;;;;;4894856;29;20200;-53
2024/01/03 07:14:41;;;;;;;6.77;1.13;;;8.20;99.90;;;;;;4905946;29;20660;-53
2024/01/03 07:17:07;;;;;;;11.57;1.53;;;8.20;99.90;;;;;;4906248;29;20188;-53
2024/01/03 07:19:32;;;;;;;8.17;1.37;;;8.30;99.90;;;;;;4896549;29;20303;-52
2024/01/03 07:21:58;;;;;;;13.03;1.37;;;8.20;99.90;;;;;;4899993;29;20697;-54
2024/01/03 07:24:23;;;;;;;7.50;1.13;;;8.30;99.90;;;;;;4909445;29;20274;-50
2024/01/03 07:26:49;;;;;;;10.27;1.43;;;8.30;99.90;;;;;;4903129;29;20268;-52
2024/01/03 07:29:15;;;;;;;4.47;1.40;;;8.30;99.90;;;;;;4910329;29;20224;-57
2024/01/03 07:31:40;;;;;;;7.03;1.10;;;8.40;99.90;;;;;;4906140;29;20180;-53
2024/01/03 07:34:06;;;;;;;4.77;0.90;;;8.40;99.90;;;;;;4912060;29;20220;-55
2024/01/03 07:36:32;;;;;;;6.00;0.90;;;8.40;99.90;;;;;;4917719;29;20303;-53
2024/01/03 07:39:00;;;;;;;7.20;1.10;;;8.50;99.90;;;;;;4915888;29;20322;-54
2024/01/03 07:41:26;;;;;;;7.27;1.30;;;8.50;99.90;;;;;;4916536;29;20203;-54
2024/01/03 07:43:51;;;;;;;9.00;1.37;;;8.50;99.90;;;;;;4910096;29;20271;-54
2024/01/03 07:46:18;;;;;;;9.00;1.30;;;8.50;99.90;;;;;;4907526;29;20181;-55
2024/01/03 07:48:43;;;;;;;8.77;1.83;;;8.60;99.90;;;;;;4905633;29;20703;-53
2024/01/03 07:51:11;;;;;;;7.53;0.83;;;8.60;99.90;;;;;;4905895;29;20217;-52
2024/01/03 07:53:37;;;;;;;3.73;1.40;;;8.60;99.90;;;;;;4897625;29;20244;-52
2024/01/03 07:56:06;;;;;;;6.60;1.20;;;8.60;99.90;;;;;;4898167;29;20212;-53
2024/01/03 07:58:31;;;;;;;9.87;1.30;;;8.70;99.90;;;;;;4905621;29;20212;-52
2024/01/03 08:00:57;;;;;;;11.17;1.10;;;8.60;99.90;;;;;;4897842;29;20203;-53
2024/01/03 08:03:22;;;;;;;8.50;1.60;;;8.60;99.90;;;;;;4912653;29;20196;-52
2024/01/03 08:05:48;;;;;;;4.10;1.20;;;8.70;99.90;;;;;;4909149;29;20188;-54
2024/01/03 08:08:14;;;;;;;7.40;1.13;;;8.70;99.90;;;;;;4901667;29;20578;-55
2024/01/03 08:10:39;;;;;;;4.97;1.03;;;8.80;99.90;;;;;;4900358;29;20882;-52
2024/01/03 08:13:05;;;;;;;3.93;1.20;;;8.80;99.90;;;;;;4902339;29;20184;-54
2024/01/03 08:15:30;;;;;;;10.50;1.20;;;8.90;99.90;;;;;;4914478;29;20541;-53
2024/01/03 08:17:56;;;;;;;7.63;1.50;;;8.90;99.90;;;;;;4911395;29;20251;-52
2024/01/03 08:20:22;;;;;;;5.80;1.03;;;9.00;99.90;;;;;;4905567;29;20219;-53
2024/01/03 08:22:47;;;;;;;6.57;1.20;;;9.00;99.90;;;;;;4911869;29;20319;-55
2024/01/03 08:25:13;;;;;;;7.60;1.00;;;9.10;99.90;;;;;;4912238;29;20225;-52
2024/01/03 08:27:39;;;;;;;6.93;1.33;;;9.20;99.90;;;;;;4916115;29;20679;-52
2024/01/03 08:30:05;;;;;;;3.33;1.17;;;9.20;99.90;;;;;;4916081;29;20464;-52
2024/01/03 08:32:31;;;;;;;8.90;1.00;;;9.20;99.90;;;;;;4915095;29;20191;-52
2024/01/03 08:34:56;;;;;;;3.03;1.13;;;9.20;99.90;;;;;;4914895;29;20560;-53
2024/01/03 08:37:22;;;;;;;6.97;0.97;;;9.30;99.90;;;;;;4915743;29;20191;-53
2024/01/03 08:39:48;;;;;;;4.63;1.10;;;9.20;99.90;;;;;;4915767;29;20204;-56
2024/01/03 08:42:13;;;;;;;5.40;1.13;;;9.20;99.90;;;;;;4915364;29;20232;-56
2024/01/03 08:44:39;;;;;;;5.63;1.27;;;9.20;99.90;;;;;;4915816;29;20205;-55
2024/01/03 08:47:04;;;;;;;6.57;1.53;;;9.20;99.90;;;;;;4916157;29;20529;-54
2024/01/03 08:49:30;;;;;;;5.83;1.00;;;9.20;99.90;;;;;;4908095;29;20708;-52
2024/01/03 08:51:57;;;;;;;5.13;1.60;;;9.30;99.90;;;;;;4915450;29;20275;-52
2024/01/03 08:54:24;;;;;;;3.17;1.13;;;9.20;99.90;;;;;;4915864;29;20672;-57
2024/01/03 08:56:50;;;;;;;7.23;1.10;;;9.20;99.90;;;;;;4916283;29;20703;-55
2024/01/03 08:59:16;;;;;;;4.43;0.93;;;9.20;99.90;;;;;;4916203;29;20207;-51
2024/01/03 09:01:41;;;;;;;2.23;0.73;;;9.00;99.90;;;;;;4900463;29;20591;-57
2024/01/03 09:04:07;;;;;;;2.10;0.60;;;8.90;99.90;;;;;;4915150;29;20280;-53
2024/01/03 09:06:35;;;;;;;3.57;0.73;;;8.80;99.90;;;;;;4907314;29;20728;-53
2024/01/03 09:09:01;;;;;;;1.90;0.53;;;8.70;99.90;;;;;;4915229;29;20218;-52
2024/01/03 09:11:27;;;;;;;1.90;0.47;;;8.50;99.90;;;;;;4915278;29;20191;-55
2024/01/03 09:13:53;;;;;;;1.87;0.30;;;8.30;99.90;;;;;;4914764;29;20199;-55
2024/01/03 09:16:22;;;;;;;2.57;0.43;;;8.30;99.90;;;;;;4913636;29;20667;-56
2024/01/03 09:18:48;;;;;;;1.93;0.40;;;8.20;99.90;;;;;;4907806;29;20228;-51
2024/01/03 09:21:14;;;;;;;1.20;0.60;;;8.20;99.90;;;;;;4915225;29;20203;-51
2024/01/03 09:23:40;;;;;;;3.37;0.57;;;8.20;99.90;;;;;;4914211;29;20248;-49
2024/01/03 09:26:07;;;;;;;1.23;0.70;;;8.20;99.90;;;;;;4915097;29;20196;-52
2024/01/03 09:28:34;;;;;;;1.53;0.50;;;8.20;99.90;;;;;;4914523;29;20762;-54
2024/01/03 09:31:02;;;;;;;1.70;1.10;;;8.30;99.90;;;;;;4913846;29;20227;-54
2024/01/03 09:33:28;;;;;;;3.60;0.83;;;8.40;99.90;;;;;;4914466;29;20680;-54
2024/01/03 09:35:53;;;;;;;2.90;1.00;;;8.70;99.90;;;;;;4914925;29;20567;-55
2024/01/03 09:38:19;;;;;;;2.63;1.40;;;8.90;99.90;;;;;;4907676;29;20319;-53
2024/01/03 09:40:44;;;;;;;3.00;1.20;;;9.20;99.90;;;;;;4904208;29;20220;-53
2024/01/03 09:43:12;;;;;;;3.30;0.93;;;9.40;99.90;;;;;;4895658;29;20188;-54
2024/01/03 09:45:37;;;;;;;4.10;0.70;;;9.50;99.90;;;;;;4906492;29;20181;-54
2024/01/03 09:48:04;;;;;;;4.63;1.00;;;9.60;99.90;;;;;;4909399;29;20535;-55
2024/01/03 09:50:31;;;;;;;4.07;0.73;;;9.70;99.90;;;;;;4911759;29;20186;-53
2024/01/03 09:52:58;;;;;;;3.57;0.63;;;10.60;99.90;;;;;;4904258;29;20232;-53
2024/01/03 09:55:23;;;;;;;4.97;1.37;;;11.80;99.90;;;;;;4912085;29;20214;-53
2024/01/03 09:57:54;;;;;;;2.70;0.80;;;12.70;99.90;;;;;;4910903;29;20636;-51
2024/01/03 10:00:19;;;;;;;4.40;0.80;;;13.60;99.90;;;;;;4910941;29;20219;-54
2024/01/03 10:02:47;;;;;;;3.40;0.60;;;14.40;99.90;;;;;;4913379;29;20214;-53
2024/01/03 10:05:20;;;;;;;3.10;1.50;;;14.70;99.90;;;;;;4914390;29;20663;-55
2024/01/03 10:07:45;;;;;;;3.43;0.70;;;14.60;99.90;;;;;;4906623;29;20243;-53
2024/01/03 10:10:11;;;;;;;4.67;0.70;;;14.10;99.90;;;;;;4914104;29;20204;-53
2024/01/03 10:12:37;;;;;;;3.93;0.50;;;13.70;99.90;;;;;;4902290;29;20196;-56
2024/01/03 10:15:16;;;;;;;3.13;0.57;;;13.50;99.90;;;;;;4908841;29;20270;-54
2024/01/03 10:17:44;;;;;;;3.43;0.50;;;13.30;99.90;;;;;;4911281;29;20295;-54
2024/01/03 10:20:29;;;;;;;3.90;0.60;;;13.00;99.90;;;;;;4901467;29;20220;-53
2024/01/03 10:23:15;;;;;;;2.37;0.60;;;12.60;99.90;;;;;;4913292;29;20184;-53
2024/01/03 10:25:42;;;;;;;5.87;0.80;;;12.60;99.90;;;;;;4906421;29;20278;-53
2024/01/03 10:28:11;;;;;;;5.37;0.90;;;12.20;99.90;;;;;;4905960;29;20242;-53
2024/01/03 10:30:37;;;;;;;6.50;0.90;;;12.10;99.90;;;;;;4913764;29;20184;-51
2024/01/03 10:33:10;;;;;;;3.33;0.70;;;12.00;99.90;;;;;;4913211;29;20214;-55
2024/01/03 10:35:37;;;;;;;2.67;0.60;;;11.80;99.90;;;;;;4911907;29;20184;-51
2024/01/03 10:38:04;;;;;;;2.90;0.70;;;11.60;99.90;;;;;;4908161;29;20564;-52
2024/01/03 10:40:31;;;;;;;3.63;0.90;;;11.50;99.90;;;;;;4913661;29;20235;-55
2024/01/03 10:42:58;;;;;;;4.30;0.97;;;11.40;99.90;;;;;;4913197;29;20191;-49
2024/01/03 10:45:24;;;;;;;8.13;1.20;;;11.30;99.90;;;;;;4913710;29;20731;-52
2024/01/03 10:47:51;;;;;;;7.03;1.07;;;11.10;99.90;;;;;;4913220;29;20667;-52
2024/01/03 10:50:16;;;;;;;7.40;1.40;;;11.00;99.90;;;;;;4906486;29;20767;-51
2024/01/03 10:52:43;;;;;;;6.50;1.17;;;11.00;99.90;;;;;;4902088;29;20295;-55
2024/01/03 10:55:20;;;;;;;7.73;1.60;;;11.10;99.90;;;;;;4902574;29;20676;-55
2024/01/03 10:58:20;;;;;;;4.83;0.90;;;11.30;99.90;;;;;;4909983;29;20184;-56
2024/01/03 11:01:06;;;;;;;8.33;1.10;;;11.40;99.90;;;;;;4911937;29;20547;-53
2024/01/03 11:03:53;;;;;;;9.23;1.10;;;11.60;99.90;;;;;;4903874;29;20712;-56
2024/01/03 11:06:24;;;;;;;8.97;1.50;;;11.50;99.90;;;;;;4902276;29;20207;-55
2024/01/03 11:08:54;;;;;;;6.33;1.60;;;11.40;99.90;;;;;;4905817;29;20218;-52
2024/01/03 11:11:34;;;;;;;6.73;1.50;;;11.40;99.90;;;;;;4913594;29;20212;-54
2024/01/03 11:14:01;;;;;;;7.53;1.20;;;11.30;99.90;;;;;;4900348;29;20185;-52
2024/01/03 11:16:38;;;;;;;5.97;1.43;;;11.40;99.90;;;;;;4910508;29;20188;-52
2024/01/03 11:19:05;;;;;;;5.83;1.13;;;11.50;99.90;;;;;;4913313;29;20304;-54
2024/01/03 11:21:35;;;;;;;6.17;1.00;;;11.60;99.90;;;;;;4913569;29;20196;-53
2024/01/03 11:24:24;;;;;;;12.00;1.30;;;11.80;99.90;;;;;;4912946;29;20195;-54
2024/01/03 11:26:53;;;;;;;8.33;1.10;;;11.90;99.90;;;;;;4913215;29;20203;-53
2024/01/03 11:29:46;;;;;;;4.57;0.77;;;12.10;99.90;;;;;;4913577;29;20219;-54
2024/01/03 11:32:15;;;;;;;5.87;0.97;;;12.10;99.90;;;;;;4901717;29;20184;-53
2024/01/03 11:34:48;;;;;;;4.33;0.97;;;11.90;99.90;;;;;;4910933;29;20192;-52
2024/01/03 11:37:17;;;;;;;9.17;1.67;;;11.80;99.90;;;;;;4912920;29;20236;-54
2024/01/03 11:39:46;;;;;;;6.17;1.03;;;11.50;99.90;;;;;;4912716;29;20542;-53
2024/01/03 11:42:32;;;;;;;8.03;1.47;;;11.40;99.90;;;;;;4912551;29;20184;-54
2024/01/03 11:45:08;;;;;;;3.70;1.10;;;11.30;99.90;;;;;;4902357;29;20184;-54
2024/01/03 11:47:39;;;;;;;9.30;2.50;;;11.20;99.90;;;;;;4903558;29;20205;-52
2024/01/03 11:50:05;;;;;;;6.93;1.00;;;11.20;99.90;;;;;;4913054;29;20263;-51
2024/01/03 11:52:45;;;;;;;7.57;1.30;;;11.20;99.90;;;;;;4904692;29;20184;-57
2024/01/03 11:55:16;;;;;;;9.03;1.07;;;11.50;99.90;;;;;;4911864;29;20179;-54
2024/01/03 11:57:44;;;;;;;7.27;1.13;;;11.70;99.90;;;;;;4912809;29;20248;-55
2024/01/03 12:00:12;;;;;;;3.67;1.23;;;11.60;99.90;;;;;;4913072;29;20204;-53
2024/01/03 12:02:47;;;;;;;4.63;1.20;;;11.40;99.90;;;;;;4912226;29;20175;-55
2024/01/03 12:05:13;;;;;;;6.87;1.00;;;11.30;99.90;;;;;;4912949;29;20199;-50
2024/01/03 12:07:38;;;;;;;7.43;1.57;;;11.10;99.90;;;;;;4905152;29;20197;-55
2024/01/03 12:10:06;;;;;;;2.80;0.90;;;10.90;99.90;;;;;;4910879;29;20212;-52
2024/01/03 12:12:32;;;;;;;7.13;1.30;;;10.80;99.90;;;;;;4913496;29;20194;-54
2024/01/03 12:14:58;;;;;;;5.30;1.10;;;10.60;99.90;;;;;;4916345;29;20183;-56
2024/01/03 12:17:33;;;;;;;8.03;1.90;;;10.40;99.90;;;;;;4915887;29;20599;-54
2024/01/03 12:20:09;;;;;;;6.97;2.10;;;10.40;99.90;;;;;;4911555;29;21114;-56
2024/01/03 12:22:35;;;;;;;8.37;1.37;;;10.30;99.90;;;;;;4914125;29;20195;-56
2024/01/03 12:25:01;;;;;;;4.60;1.30;;;10.10;99.90;;;;;;4912101;29;20243;-54
2024/01/03 12:27:26;;;;;;;5.63;1.40;;;10.10;99.90;;;;;;4905618;29;20191;-52
2024/01/03 12:30:08;;;;;;;4.53;1.10;;;10.00;99.90;;;;;;4904479;29;20209;-55
2024/01/03 12:32:35;;;;;;;2.93;1.00;;;10.10;99.90;;;;;;4898369;29;20188;-51
2024/01/03 12:35:01;;;;;;;5.77;1.00;;;10.10;99.90;;;;;;4916048;29;20239;-54
2024/01/03 12:37:28;;;;;;;6.80;0.90;;;10.00;99.90;;;;;;4915164;29;20180;-51
2024/01/03 12:39:53;;;;;;;10.17;1.40;;;10.00;99.90;;;;;;4905021;29;20216;-55
2024/01/03 12:42:19;;;;;;;3.57;1.20;;;10.00;99.90;;;;;;4911445;29;20562;-53
2024/01/03 12:44:44;;;;;;;7.43;1.97;;;9.90;99.90;;;;;;4907901;29;20180;-53
2024/01/03 12:47:10;;;;;;;10.80;3.97;;;9.90;99.90;;;;;;4908331;29;20270;-53
2024/01/03 12:49:38;;;;;;;11.23;3.30;;;9.90;99.90;;;;;;4912366;29;20299;-52
2024/01/03 12:52:04;;;;;;;6.27;2.60;;;9.90;99.90;;;;;;4910159;29;20271;-55